sensor_id;sensor_type;location;lat;lon;timestamp;temperature;humidity
12481;DHT22;6305;48.398;11.762;2023-03-03T00:00:44;-1.00;99.90
12481;DHT22;6305;48.398;11.762;2023-03-03T00:03:14;-1.00;99.90
12481;DHT22;6305;48.398;11.762;2023-03-03T00:05:42;-1.00;99.90
12481;DHT22;6305;48.398;11.762;2023-03-03T00:08:10;-1.00;99.90
12481;DHT22;6305;48.398;11.762;2023-03-03T00:10:38;-1.00;99.90
12481;DHT22;6305;48.398;11.762;2023-03-03T00:13:12;-1.00;99.90
12481;DHT22;6305;48.398;11.762;2023-03-03T00:15:40;-1.10;99.90
12481;DHT22;6305;48.398;11.762;2023-03-03T00:18:21;-1.10;99.90
12481;DHT22;6305;48.398;11.762;2023-03-03T00:20:53;-1.10;99.90
12481;DHT22;6305;48.398;11.762;2023-03-03T00:23:27;-1.20;99.90
12481;DHT22;6305;48.398;11.762;2023-03-03T00:25:57;-1.20;99.90
12481;DHT22;6305;48.398;11.762;2023-03-03T00:28:28;-1.20;99.90
12481;DHT22;6305;48.398;11.762;2023-03-03T00:30:57;-1.20;99.90
12481;DHT22;6305;48.398;11.762;2023-03-03T00:33:27;-1.20;99.90
12481;DHT22;6305;48.398;11.762;2023-03-03T00:36:21;-1.30;99.90
12481;DHT22;6305;48.398;11.762;2023-03-03T00:38:53;-1.20;99.90
12481;DHT22;6305;48.398;11.762;2023-03-03T00:41:25;-1.20;99.90
12481;DHT22;6305;48.398;11.762;2023-03-03T00:43:53;-1.20;99.90
12481;DHT22;6305;48.398;11.762;2023-03-03T00:46:21;-1.20;99.90
12481;DHT22;6305;48.398;11.762;2023-03-03T00:48:49;-1.10;99.90
12481;DHT22;6305;48.398;11.762;2023-03-03T00:51:26;-1.20;99.90
12481;DHT22;6305;48.398;11.762;2023-03-03T00:53:55;-1.10;99.90
12481;DHT22;6305;48.398;11.762;2023-03-03T00:56:24;-1.10;99.90
12481;DHT22;6305;48.398;11.762;2023-03-03T00:58:52;-1.10;99.90
12481;DHT22;6305;48.398;11.762;2023-03-03T01:01:21;-1.10;99.90
12481;DHT22;6305;48.398;11.762;2023-03-03T01:03:52;-1.10;99.90
12481;DHT22;6305;48.398;11.762;2023-03-03T01:06:19;-1.10;99.90
12481;DHT22;6305;48.398;11.762;2023-03-03T01:08:46;-1.20;99.90
12481;DHT22;6305;48.398;11.762;2023-03-03T01:11:16;-1.20;99.90
12481;DHT22;6305;48.398;11.762;2023-03-03T01:13:47;-1.20;99.90
12481;DHT22;6305;48.398;11.762;2023-03-03T01:16:15;-1.20;99.90
12481;DHT22;6305;48.398;11.762;2023-03-03T01:18:42;-1.30;99.90
12481;DHT22;6305;48.398;11.762;2023-03-03T01:21:09;-1.30;99.90
12481;DHT22;6305;48.398;11.762;2023-03-03T01:23:38;-1.40;99.90
12481;DHT22;6305;48.398;11.762;2023-03-03T01:26:05;-1.40;99.90
12481;DHT22;6305;48.398;11.762;2023-03-03T01:28:32;-1.40;99.90
12481;DHT22;6305;48.398;11.762;2023-03-03T01:31:01;-1.40;99.90
12481;DHT22;6305;48.398;11.762;2023-03-03T01:33:29;-1.50;99.90
12481;DHT22;6305;48.398;11.762;2023-03-03T01:35:57;-1.40;99.90
12481;DHT22;6305;48.398;11.762;2023-03-03T01:38:24;-1.50;99.90
12481;DHT22;6305;48.398;11.762;2023-03-03T01:40:52;-1.60;99.90
12481;DHT22;6305;48.398;11.762;2023-03-03T01:43:20;-1.60;99.90
12481;DHT22;6305;48.398;11.762;2023-03-03T01:46:26;-1.60;99.90
12481;DHT22;6305;48.398;11.762;2023-03-03T01:48:57;-1.70;99.90
12481;DHT22;6305;48.398;11.762;2023-03-03T01:51:29;-1.70;99.90
12481;DHT22;6305;48.398;11.762;2023-03-03T01:54:00;-1.70;99.90
12481;DHT22;6305;48.398;11.762;2023-03-03T01:56:28;-1.70;99.90
12481;DHT22;6305;48.398;11.762;2023-03-03T01:58:59;-1.60;99.90
12481;DHT22;6305;48.398;11.762;2023-03-03T02:01:29;-1.60;99.90
12481;DHT22;6305;48.398;11.762;2023-03-03T02:03:58;-1.60;99.90
12481;DHT22;6305;48.398;11.762;2023-03-03T02:06:27;-1.50;99.90
12481;DHT22;6305;48.398;11.762;2023-03-03T02:08:59;-1.50;99.90
12481;DHT22;6305;48.398;11.762;2023-03-03T02:11:28;-1.50;99.90
12481;DHT22;6305;48.398;11.762;2023-03-03T02:13:58;-1.50;99.90
12481;DHT22;6305;48.398;11.762;2023-03-03T02:16:25;-1.50;99.90
12481;DHT22;6305;48.398;11.762;2023-03-03T02:18:54;-1.50;99.90
12481;DHT22;6305;48.398;11.762;2023-03-03T02:21:23;-1.50;99.90
12481;DHT22;6305;48.398;11.762;2023-03-03T02:23:57;-1.50;99.90
12481;DHT22;6305;48.398;11.762;2023-03-03T02:26:29;-1.50;99.90
12481;DHT22;6305;48.398;11.762;2023-03-03T02:29:02;-1.60;99.90
12481;DHT22;6305;48.398;11.762;2023-03-03T02:31:30;-1.60;99.90
12481;DHT22;6305;48.398;11.762;2023-03-03T02:33:58;-1.60;99.90
12481;DHT22;6305;48.398;11.762;2023-03-03T02:36:28;-1.60;99.90
12481;DHT22;6305;48.398;11.762;2023-03-03T02:39:00;-1.70;99.90
12481;DHT22;6305;48.398;11.762;2023-03-03T02:41:33;-1.70;99.90
12481;DHT22;6305;48.398;11.762;2023-03-03T02:44:03;-1.80;99.90
12481;DHT22;6305;48.398;11.762;2023-03-03T02:46:33;-1.80;99.90
12481;DHT22;6305;48.398;11.762;2023-03-03T02:49:00;-1.80;99.90
12481;DHT22;6305;48.398;11.762;2023-03-03T02:51:28;-1.80;99.90
12481;DHT22;6305;48.398;11.762;2023-03-03T02:53:55;-1.80;99.90
12481;DHT22;6305;48.398;11.762;2023-03-03T02:56:23;-1.80;99.90
12481;DHT22;6305;48.398;11.762;2023-03-03T02:58:52;-1.80;99.90
12481;DHT22;6305;48.398;11.762;2023-03-03T03:01:20;-1.80;99.90
12481;DHT22;6305;48.398;11.762;2023-03-03T03:03:48;-1.80;99.90
12481;DHT22;6305;48.398;11.762;2023-03-03T03:06:18;-1.80;99.90
12481;DHT22;6305;48.398;11.762;2023-03-03T03:08:46;-1.80;99.90
12481;DHT22;6305;48.398;11.762;2023-03-03T03:11:13;-1.80;99.90
12481;DHT22;6305;48.398;11.762;2023-03-03T03:13:40;-1.80;99.90
12481;DHT22;6305;48.398;11.762;2023-03-03T03:16:08;-1.70;99.90
12481;DHT22;6305;48.398;11.762;2023-03-03T03:18:35;-1.70;99.90
12481;DHT22;6305;48.398;11.762;2023-03-03T03:21:07;-1.60;99.90
12481;DHT22;6305;48.398;11.762;2023-03-03T03:23:34;-1.50;99.90
12481;DHT22;6305;48.398;11.762;2023-03-03T03:26:01;-1.40;99.90
12481;DHT22;6305;48.398;11.762;2023-03-03T03:28:29;-1.30;99.90
12481;DHT22;6305;48.398;11.762;2023-03-03T03:30:56;-1.20;99.90
12481;DHT22;6305;48.398;11.762;2023-03-03T03:33:24;-1.10;99.90
12481;DHT22;6305;48.398;11.762;2023-03-03T03:35:53;-1.00;99.90
12481;DHT22;6305;48.398;11.762;2023-03-03T03:38:21;-0.90;99.90
12481;DHT22;6305;48.398;11.762;2023-03-03T03:40:48;-0.80;99.90
12481;DHT22;6305;48.398;11.762;2023-03-03T03:43:16;-0.70;99.90
12481;DHT22;6305;48.398;11.762;2023-03-03T03:45:43;-0.60;99.90
12481;DHT22;6305;48.398;11.762;2023-03-03T03:48:11;-0.50;99.90
12481;DHT22;6305;48.398;11.762;2023-03-03T03:50:39;-0.50;99.90
12481;DHT22;6305;48.398;11.762;2023-03-03T03:53:07;-0.40;99.90
12481;DHT22;6305;48.398;11.762;2023-03-03T03:55:34;-0.40;99.90
12481;DHT22;6305;48.398;11.762;2023-03-03T03:58:02;-0.30;99.90
12481;DHT22;6305;48.398;11.762;2023-03-03T04:00:30;-0.30;99.90
12481;DHT22;6305;48.398;11.762;2023-03-03T04:02:59;-0.30;99.90
12481;DHT22;6305;48.398;11.762;2023-03-03T04:05:26;-0.20;99.90
12481;DHT22;6305;48.398;11.762;2023-03-03T04:07:55;-0.20;99.90
12481;DHT22;6305;48.398;11.762;2023-03-03T04:10:22;-0.20;99.90
12481;DHT22;6305;48.398;11.762;2023-03-03T04:12:49;-0.20;99.90
12481;DHT22;6305;48.398;11.762;2023-03-03T04:15:17;-0.10;99.90
12481;DHT22;6305;48.398;11.762;2023-03-03T04:17:44;-0.10;99.90
12481;DHT22;6305;48.398;11.762;2023-03-03T04:20:12;-0.10;99.90
12481;DHT22;6305;48.398;11.762;2023-03-03T04:22:41;-0.10;99.90
12481;DHT22;6305;48.398;11.762;2023-03-03T04:25:13;-0.10;99.90
12481;DHT22;6305;48.398;11.762;2023-03-03T04:27:43;-0.10;99.90
12481;DHT22;6305;48.398;11.762;2023-03-03T04:30:13;-0.10;99.90
12481;DHT22;6305;48.398;11.762;2023-03-03T04:32:43;-0.10;99.90
12481;DHT22;6305;48.398;11.762;2023-03-03T04:35:11;0.00;99.90
12481;DHT22;6305;48.398;11.762;2023-03-03T04:37:41;0.00;99.90
12481;DHT22;6305;48.398;11.762;2023-03-03T04:40:11;0.00;99.90
12481;DHT22;6305;48.398;11.762;2023-03-03T04:42:40;0.00;99.90
12481;DHT22;6305;48.398;11.762;2023-03-03T04:45:09;0.00;99.90
12481;DHT22;6305;48.398;11.762;2023-03-03T04:47:37;0.00;99.90
12481;DHT22;6305;48.398;11.762;2023-03-03T04:50:05;0.00;99.90
12481;DHT22;6305;48.398;11.762;2023-03-03T04:52:33;0.00;99.90
12481;DHT22;6305;48.398;11.762;2023-03-03T04:55:00;0.00;99.90
12481;DHT22;6305;48.398;11.762;2023-03-03T04:57:29;0.10;99.90
12481;DHT22;6305;48.398;11.762;2023-03-03T04:59:56;0.10;99.90
12481;DHT22;6305;48.398;11.762;2023-03-03T05:02:23;0.10;99.90
12481;DHT22;6305;48.398;11.762;2023-03-03T05:04:51;0.10;99.90
12481;DHT22;6305;48.398;11.762;2023-03-03T05:07:18;0.10;99.90
12481;DHT22;6305;48.398;11.762;2023-03-03T05:09:45;0.10;99.90
12481;DHT22;6305;48.398;11.762;2023-03-03T05:12:12;0.20;99.90
12481;DHT22;6305;48.398;11.762;2023-03-03T05:14:40;0.20;99.90
12481;DHT22;6305;48.398;11.762;2023-03-03T05:17:07;0.20;99.90
12481;DHT22;6305;48.398;11.762;2023-03-03T05:19:34;0.20;99.90
12481;DHT22;6305;48.398;11.762;2023-03-03T05:22:01;0.20;99.90
12481;DHT22;6305;48.398;11.762;2023-03-03T05:24:28;0.20;99.90
12481;DHT22;6305;48.398;11.762;2023-03-03T05:26:55;0.30;99.90
12481;DHT22;6305;48.398;11.762;2023-03-03T05:29:22;0.30;99.90
12481;DHT22;6305;48.398;11.762;2023-03-03T05:31:50;0.30;99.90
12481;DHT22;6305;48.398;11.762;2023-03-03T05:34:17;0.30;99.90
12481;DHT22;6305;48.398;11.762;2023-03-03T05:36:44;0.30;99.90
12481;DHT22;6305;48.398;11.762;2023-03-03T05:39:11;0.30;99.90
12481;DHT22;6305;48.398;11.762;2023-03-03T05:41:39;0.30;99.90
12481;DHT22;6305;48.398;11.762;2023-03-03T05:44:06;0.30;99.90
12481;DHT22;6305;48.398;11.762;2023-03-03T05:46:33;0.40;99.90
12481;DHT22;6305;48.398;11.762;2023-03-03T05:49:02;0.40;99.90
12481;DHT22;6305;48.398;11.762;2023-03-03T05:51:28;0.40;99.90
12481;DHT22;6305;48.398;11.762;2023-03-03T05:53:55;0.40;99.90
12481;DHT22;6305;48.398;11.762;2023-03-03T05:56:22;0.50;99.90
12481;DHT22;6305;48.398;11.762;2023-03-03T05:58:49;0.50;99.90
12481;DHT22;6305;48.398;11.762;2023-03-03T06:01:16;0.50;99.90
12481;DHT22;6305;48.398;11.762;2023-03-03T06:03:43;0.50;99.90
12481;DHT22;6305;48.398;11.762;2023-03-03T06:06:11;0.60;99.90
12481;DHT22;6305;48.398;11.762;2023-03-03T06:08:40;0.60;99.90
12481;DHT22;6305;48.398;11.762;2023-03-03T06:11:07;0.60;99.90
12481;DHT22;6305;48.398;11.762;2023-03-03T06:13:34;0.60;99.90
12481;DHT22;6305;48.398;11.762;2023-03-03T06:16:02;0.70;99.90
12481;DHT22;6305;48.398;11.762;2023-03-03T06:18:29;0.70;99.90
12481;DHT22;6305;48.398;11.762;2023-03-03T06:20:56;0.80;99.90
12481;DHT22;6305;48.398;11.762;2023-03-03T06:23:24;0.80;99.90
12481;DHT22;6305;48.398;11.762;2023-03-03T06:25:52;0.90;99.90
12481;DHT22;6305;48.398;11.762;2023-03-03T06:28:18;0.90;99.90
12481;DHT22;6305;48.398;11.762;2023-03-03T06:30:45;1.00;99.90
12481;DHT22;6305;48.398;11.762;2023-03-03T06:33:12;1.00;99.90
12481;DHT22;6305;48.398;11.762;2023-03-03T06:35:39;1.10;99.90
12481;DHT22;6305;48.398;11.762;2023-03-03T06:38:06;1.20;99.90
12481;DHT22;6305;48.398;11.762;2023-03-03T06:40:34;1.30;99.90
12481;DHT22;6305;48.398;11.762;2023-03-03T06:43:01;1.30;99.90
12481;DHT22;6305;48.398;11.762;2023-03-03T06:45:28;1.40;99.90
12481;DHT22;6305;48.398;11.762;2023-03-03T06:47:55;1.50;99.90
12481;DHT22;6305;48.398;11.762;2023-03-03T06:50:23;1.50;99.90
12481;DHT22;6305;48.398;11.762;2023-03-03T06:53:06;1.60;99.90
12481;DHT22;6305;48.398;11.762;2023-03-03T06:55:37;1.70;99.90
12481;DHT22;6305;48.398;11.762;2023-03-03T06:58:08;1.80;99.90
12481;DHT22;6305;48.398;11.762;2023-03-03T07:00:37;1.90;99.90
12481;DHT22;6305;48.398;11.762;2023-03-03T07:03:10;2.00;99.90
12481;DHT22;6305;48.398;11.762;2023-03-03T07:05:38;2.10;99.90
12481;DHT22;6305;48.398;11.762;2023-03-03T07:08:08;2.20;99.90
12481;DHT22;6305;48.398;11.762;2023-03-03T07:10:38;2.30;99.90
12481;DHT22;6305;48.398;11.762;2023-03-03T07:13:16;2.40;99.90
12481;DHT22;6305;48.398;11.762;2023-03-03T07:15:43;2.50;99.90
12481;DHT22;6305;48.398;11.762;2023-03-03T07:18:25;2.70;99.90
12481;DHT22;6305;48.398;11.762;2023-03-03T07:20:57;2.90;99.90
12481;DHT22;6305;48.398;11.762;2023-03-03T07:23:27;3.00;99.90
12481;DHT22;6305;48.398;11.762;2023-03-03T07:25:59;3.00;99.90
12481;DHT22;6305;48.398;11.762;2023-03-03T07:28:27;3.10;99.90
12481;DHT22;6305;48.398;11.762;2023-03-03T07:30:56;3.10;99.90
12481;DHT22;6305;48.398;11.762;2023-03-03T07:33:26;3.20;99.90
12481;DHT22;6305;48.398;11.762;2023-03-03T07:35:54;3.20;99.90
12481;DHT22;6305;48.398;11.762;2023-03-03T07:38:30;3.30;99.90
12481;DHT22;6305;48.398;11.762;2023-03-03T07:41:00;3.50;99.90
12481;DHT22;6305;48.398;11.762;2023-03-03T07:43:33;3.70;99.90
12481;DHT22;6305;48.398;11.762;2023-03-03T07:46:18;3.90;99.90
12481;DHT22;6305;48.398;11.762;2023-03-03T07:48:48;4.20;99.90
12481;DHT22;6305;48.398;11.762;2023-03-03T07:51:19;4.40;99.90
12481;DHT22;6305;48.398;11.762;2023-03-03T07:53:47;4.50;99.90
12481;DHT22;6305;48.398;11.762;2023-03-03T07:56:26;4.60;99.90
12481;DHT22;6305;48.398;11.762;2023-03-03T07:58:54;4.80;99.90
12481;DHT22;6305;48.398;11.762;2023-03-03T08:01:34;5.00;99.90
12481;DHT22;6305;48.398;11.762;2023-03-03T08:04:11;5.30;99.90
12481;DHT22;6305;48.398;11.762;2023-03-03T08:06:51;5.80;99.90
12481;DHT22;6305;48.398;11.762;2023-03-03T08:09:30;5.90;99.90
12481;DHT22;6305;48.398;11.762;2023-03-03T08:12:18;5.90;99.90
12481;DHT22;6305;48.398;11.762;2023-03-03T08:14:47;5.90;99.90
12481;DHT22;6305;48.398;11.762;2023-03-03T08:17:20;6.10;99.90
12481;DHT22;6305;48.398;11.762;2023-03-03T08:19:48;6.10;99.90
12481;DHT22;6305;48.398;11.762;2023-03-03T08:22:17;6.10;99.90
12481;DHT22;6305;48.398;11.762;2023-03-03T08:24:45;6.20;99.90
12481;DHT22;6305;48.398;11.762;2023-03-03T08:27:13;6.30;99.90
12481;DHT22;6305;48.398;11.762;2023-03-03T08:29:40;6.40;99.90
12481;DHT22;6305;48.398;11.762;2023-03-03T08:32:07;6.40;99.90
12481;DHT22;6305;48.398;11.762;2023-03-03T08:34:34;6.40;99.90
12481;DHT22;6305;48.398;11.762;2023-03-03T08:37:01;6.60;99.90
12481;DHT22;6305;48.398;11.762;2023-03-03T08:39:28;6.90;99.90
12481;DHT22;6305;48.398;11.762;2023-03-03T08:41:55;7.10;99.90
12481;DHT22;6305;48.398;11.762;2023-03-03T08:44:23;7.30;99.90
12481;DHT22;6305;48.398;11.762;2023-03-03T08:46:51;7.60;99.90
12481;DHT22;6305;48.398;11.762;2023-03-03T08:49:18;8.00;99.90
12481;DHT22;6305;48.398;11.762;2023-03-03T08:51:44;8.40;99.90
12481;DHT22;6305;48.398;11.762;2023-03-03T08:54:11;8.70;99.90
12481;DHT22;6305;48.398;11.762;2023-03-03T08:56:39;8.70;99.90
12481;DHT22;6305;48.398;11.762;2023-03-03T08:59:05;8.90;99.90
12481;DHT22;6305;48.398;11.762;2023-03-03T09:01:35;8.80;99.30
12481;DHT22;6305;48.398;11.762;2023-03-03T09:04:02;8.80;98.40
12481;DHT22;6305;48.398;11.762;2023-03-03T09:06:29;8.90;98.80
12481;DHT22;6305;48.398;11.762;2023-03-03T09:08:56;9.20;98.50
12481;DHT22;6305;48.398;11.762;2023-03-03T09:11:24;9.20;94.70
12481;DHT22;6305;48.398;11.762;2023-03-03T09:13:56;9.20;95.30
12481;DHT22;6305;48.398;11.762;2023-03-03T09:16:26;9.70;95.60
12481;DHT22;6305;48.398;11.762;2023-03-03T09:18:58;10.20;92.10
12481;DHT22;6305;48.398;11.762;2023-03-03T09:21:33;11.20;89.10
12481;DHT22;6305;48.398;11.762;2023-03-03T09:24:00;12.10;81.90
12481;DHT22;6305;48.398;11.762;2023-03-03T09:26:29;12.40;75.50
12481;DHT22;6305;48.398;11.762;2023-03-03T09:29:08;12.50;72.10
12481;DHT22;6305;48.398;11.762;2023-03-03T09:31:42;13.40;72.90
12481;DHT22;6305;48.398;11.762;2023-03-03T09:34:22;15.90;65.40
12481;DHT22;6305;48.398;11.762;2023-03-03T09:36:50;16.50;55.40
12481;DHT22;6305;48.398;11.762;2023-03-03T09:39:18;17.20;53.60
12481;DHT22;6305;48.398;11.762;2023-03-03T09:42:03;16.40;52.00
12481;DHT22;6305;48.398;11.762;2023-03-03T09:45:02;15.70;51.30
12481;DHT22;6305;48.398;11.762;2023-03-03T09:47:45;14.60;51.30
12481;DHT22;6305;48.398;11.762;2023-03-03T09:50:27;13.50;52.80
12481;DHT22;6305;48.398;11.762;2023-03-03T09:53:04;12.90;54.80
12481;DHT22;6305;48.398;11.762;2023-03-03T09:55:43;12.40;56.30
12481;DHT22;6305;48.398;11.762;2023-03-03T09:58:40;12.50;57.70
12481;DHT22;6305;48.398;11.762;2023-03-03T10:01:42;12.70;58.00
12481;DHT22;6305;48.398;11.762;2023-03-03T10:04:28;13.80;58.50
12481;DHT22;6305;48.398;11.762;2023-03-03T10:07:14;15.20;56.40
12481;DHT22;6305;48.398;11.762;2023-03-03T10:10:02;16.30;54.00
12481;DHT22;6305;48.398;11.762;2023-03-03T10:12:37;16.70;51.70
12481;DHT22;6305;48.398;11.762;2023-03-03T10:15:26;17.00;50.00
12481;DHT22;6305;48.398;11.762;2023-03-03T10:17:57;19.20;49.30
12481;DHT22;6305;48.398;11.762;2023-03-03T10:20:43;21.50;45.90
12481;DHT22;6305;48.398;11.762;2023-03-03T10:23:19;24.40;42.70
12481;DHT22;6305;48.398;11.762;2023-03-03T10:25:55;25.70;36.90
12481;DHT22;6305;48.398;11.762;2023-03-03T10:28:41;25.20;34.90
12481;DHT22;6305;48.398;11.762;2023-03-03T10:31:29;24.60;34.40
12481;DHT22;6305;48.398;11.762;2023-03-03T10:34:05;23.80;34.10
12481;DHT22;6305;48.398;11.762;2023-03-03T10:36:48;23.00;34.90
12481;DHT22;6305;48.398;11.762;2023-03-03T10:39:48;22.00;35.60
12481;DHT22;6305;48.398;11.762;2023-03-03T10:42:28;21.10;36.70
12481;DHT22;6305;48.398;11.762;2023-03-03T10:48:05;19.00;39.80
12481;DHT22;6305;48.398;11.762;2023-03-03T10:50:43;19.40;40.90
12481;DHT22;6305;48.398;11.762;2023-03-03T10:53:20;19.70;40.30
12481;DHT22;6305;48.398;11.762;2023-03-03T10:56:00;19.50;40.10
12481;DHT22;6305;48.398;11.762;2023-03-03T10:59:02;19.40;39.90
12481;DHT22;6305;48.398;11.762;2023-03-03T11:01:41;18.50;39.80
12481;DHT22;6305;48.398;11.762;2023-03-03T11:04:39;17.30;41.60
12481;DHT22;6305;48.398;11.762;2023-03-03T11:07:10;16.30;43.70
12481;DHT22;6305;48.398;11.762;2023-03-03T11:10:07;16.00;45.00
12481;DHT22;6305;48.398;11.762;2023-03-03T11:12:47;16.20;45.10
12481;DHT22;6305;48.398;11.762;2023-03-03T11:15:25;16.40;45.10
12481;DHT22;6305;48.398;11.762;2023-03-03T11:18:08;17.00;44.90
12481;DHT22;6305;48.398;11.762;2023-03-03T11:20:40;17.80;44.20
12481;DHT22;6305;48.398;11.762;2023-03-03T11:23:23;18.60;42.90
12481;DHT22;6305;48.398;11.762;2023-03-03T11:26:06;19.00;42.10
12481;DHT22;6305;48.398;11.762;2023-03-03T11:28:48;19.70;41.40
12481;DHT22;6305;48.398;11.762;2023-03-03T11:31:20;19.70;40.30
12481;DHT22;6305;48.398;11.762;2023-03-03T11:33:57;19.90;40.30
12481;DHT22;6305;48.398;11.762;2023-03-03T11:36:31;21.10;39.80
12481;DHT22;6305;48.398;11.762;2023-03-03T11:39:02;22.10;39.40
12481;DHT22;6305;48.398;11.762;2023-03-03T11:41:32;23.60;37.30
12481;DHT22;6305;48.398;11.762;2023-03-03T11:44:09;24.50;35.30
12481;DHT22;6305;48.398;11.762;2023-03-03T11:46:43;25.10;33.80
12481;DHT22;6305;48.398;11.762;2023-03-03T11:49:14;25.20;33.20
12481;DHT22;6305;48.398;11.762;2023-03-03T11:51:49;24.50;33.20
12481;DHT22;6305;48.398;11.762;2023-03-03T11:54:21;23.60;33.30
12481;DHT22;6305;48.398;11.762;2023-03-03T11:56:52;23.20;34.40
12481;DHT22;6305;48.398;11.762;2023-03-03T11:59:37;23.30;34.70
12481;DHT22;6305;48.398;11.762;2023-03-03T12:02:19;23.20;34.30
12481;DHT22;6305;48.398;11.762;2023-03-03T12:04:52;22.40;34.50
12481;DHT22;6305;48.398;11.762;2023-03-03T12:07:27;21.60;35.50
12481;DHT22;6305;48.398;11.762;2023-03-03T12:10:05;21.00;36.70
12481;DHT22;6305;48.398;11.762;2023-03-03T12:12:37;21.30;37.30
12481;DHT22;6305;48.398;11.762;2023-03-03T12:15:26;21.00;36.30
12481;DHT22;6305;48.398;11.762;2023-03-03T12:18:23;21.30;37.40
12481;DHT22;6305;48.398;11.762;2023-03-03T12:21:01;22.70;37.00
12481;DHT22;6305;48.398;11.762;2023-03-03T12:23:52;23.80;34.00
12481;DHT22;6305;48.398;11.762;2023-03-03T12:26:29;25.00;33.60
12481;DHT22;6305;48.398;11.762;2023-03-03T12:29:05;26.00;31.80
12481;DHT22;6305;48.398;11.762;2023-03-03T12:31:45;26.80;30.70
12481;DHT22;6305;48.398;11.762;2023-03-03T12:34:20;27.00;29.80
12481;DHT22;6305;48.398;11.762;2023-03-03T12:39:43;26.10;30.00
12481;DHT22;6305;48.398;11.762;2023-03-03T12:42:18;26.20;30.50
12481;DHT22;6305;48.398;11.762;2023-03-03T12:44:56;25.90;30.00
12481;DHT22;6305;48.398;11.762;2023-03-03T12:47:31;25.80;30.00
12481;DHT22;6305;48.398;11.762;2023-03-03T12:50:13;25.20;30.20
12481;DHT22;6305;48.398;11.762;2023-03-03T12:52:53;24.20;31.50
12481;DHT22;6305;48.398;11.762;2023-03-03T12:55:34;24.30;32.40
12481;DHT22;6305;48.398;11.762;2023-03-03T12:58:08;23.80;31.70
12481;DHT22;6305;48.398;11.762;2023-03-03T13:00:45;23.70;32.30
12481;DHT22;6305;48.398;11.762;2023-03-03T13:03:23;23.70;32.10
12481;DHT22;6305;48.398;11.762;2023-03-03T13:05:58;23.50;32.40
12481;DHT22;6305;48.398;11.762;2023-03-03T13:08:36;23.00;32.40
12481;DHT22;6305;48.398;11.762;2023-03-03T13:11:24;23.20;33.40
12481;DHT22;6305;48.398;11.762;2023-03-03T13:13:58;23.10;32.60
12481;DHT22;6305;48.398;11.762;2023-03-03T13:16:30;23.50;33.30
12481;DHT22;6305;48.398;11.762;2023-03-03T13:19:03;24.10;32.80
12481;DHT22;6305;48.398;11.762;2023-03-03T13:21:36;24.80;32.00
12481;DHT22;6305;48.398;11.762;2023-03-03T13:24:14;24.80;30.70
12481;DHT22;6305;48.398;11.762;2023-03-03T13:26:47;24.30;30.90
12481;DHT22;6305;48.398;11.762;2023-03-03T13:29:19;23.70;31.10
12481;DHT22;6305;48.398;11.762;2023-03-03T13:31:52;23.50;32.30
12481;DHT22;6305;48.398;11.762;2023-03-03T13:34:36;23.40;32.50
12481;DHT22;6305;48.398;11.762;2023-03-03T13:37:13;23.30;32.50
12481;DHT22;6305;48.398;11.762;2023-03-03T13:39:46;23.70;33.20
12481;DHT22;6305;48.398;11.762;2023-03-03T13:42:21;24.20;32.50
12481;DHT22;6305;48.398;11.762;2023-03-03T13:44:50;24.50;31.80
12481;DHT22;6305;48.398;11.762;2023-03-03T13:47:23;24.70;32.00
12481;DHT22;6305;48.398;11.762;2023-03-03T13:50:02;24.80;31.50
12481;DHT22;6305;48.398;11.762;2023-03-03T13:52:31;24.90;32.00
12481;DHT22;6305;48.398;11.762;2023-03-03T13:55:09;25.30;31.20
12481;DHT22;6305;48.398;11.762;2023-03-03T13:57:54;25.00;30.90
12481;DHT22;6305;48.398;11.762;2023-03-03T14:00:33;24.50;31.80
12481;DHT22;6305;48.398;11.762;2023-03-03T14:06:09;23.90;32.10
12481;DHT22;6305;48.398;11.762;2023-03-03T14:11:35;23.30;32.60
12481;DHT22;6305;48.398;11.762;2023-03-03T14:14:12;22.80;33.60
12481;DHT22;6305;48.398;11.762;2023-03-03T14:16:49;23.00;34.30
12481;DHT22;6305;48.398;11.762;2023-03-03T14:19:20;23.20;33.80
12481;DHT22;6305;48.398;11.762;2023-03-03T14:22:01;23.10;33.90
12481;DHT22;6305;48.398;11.762;2023-03-03T14:24:30;23.10;33.50
12481;DHT22;6305;48.398;11.762;2023-03-03T14:27:21;22.70;33.60
12481;DHT22;6305;48.398;11.762;2023-03-03T14:29:49;22.10;33.90
12481;DHT22;6305;48.398;11.762;2023-03-03T14:32:20;21.60;34.80
12481;DHT22;6305;48.398;11.762;2023-03-03T14:34:56;21.40;36.00
12481;DHT22;6305;48.398;11.762;2023-03-03T14:37:27;21.40;36.00
12481;DHT22;6305;48.398;11.762;2023-03-03T14:40:17;21.70;35.90
12481;DHT22;6305;48.398;11.762;2023-03-03T14:42:47;21.60;35.40
12481;DHT22;6305;48.398;11.762;2023-03-03T14:45:20;21.50;35.90
12481;DHT22;6305;48.398;11.762;2023-03-03T14:47:49;21.30;36.40
12481;DHT22;6305;48.398;11.762;2023-03-03T14:50:32;21.10;36.40
12481;DHT22;6305;48.398;11.762;2023-03-03T14:53:10;20.70;36.40
12481;DHT22;6305;48.398;11.762;2023-03-03T14:55:40;20.00;37.70
12481;DHT22;6305;48.398;11.762;2023-03-03T14:58:27;19.80;38.50
12481;DHT22;6305;48.398;11.762;2023-03-03T15:01:15;20.00;38.30
12481;DHT22;6305;48.398;11.762;2023-03-03T15:03:48;19.80;38.40
12481;DHT22;6305;48.398;11.762;2023-03-03T15:06:39;19.90;38.60
12481;DHT22;6305;48.398;11.762;2023-03-03T15:09:32;20.00;38.50
12481;DHT22;6305;48.398;11.762;2023-03-03T15:12:11;20.10;38.30
12481;DHT22;6305;48.398;11.762;2023-03-03T15:14:44;19.80;38.30
12481;DHT22;6305;48.398;11.762;2023-03-03T15:17:27;19.60;38.70
12481;DHT22;6305;48.398;11.762;2023-03-03T15:20:20;19.00;38.60
12481;DHT22;6305;48.398;11.762;2023-03-03T15:22:49;17.50;40.00
12481;DHT22;6305;48.398;11.762;2023-03-03T15:25:26;16.20;42.10
12481;DHT22;6305;48.398;11.762;2023-03-03T15:28:06;14.70;44.70
12481;DHT22;6305;48.398;11.762;2023-03-03T15:30:38;13.70;47.10
12481;DHT22;6305;48.398;11.762;2023-03-03T15:33:13;13.30;49.00
12481;DHT22;6305;48.398;11.762;2023-03-03T15:35:51;12.90;49.80
12481;DHT22;6305;48.398;11.762;2023-03-03T15:38:33;12.30;50.80
12481;DHT22;6305;48.398;11.762;2023-03-03T15:41:17;11.60;52.30
12481;DHT22;6305;48.398;11.762;2023-03-03T15:43:55;11.00;54.10
12481;DHT22;6305;48.398;11.762;2023-03-03T15:46:30;10.50;56.10
12481;DHT22;6305;48.398;11.762;2023-03-03T15:49:09;10.10;57.40
12481;DHT22;6305;48.398;11.762;2023-03-03T15:51:54;9.80;60.00
12481;DHT22;6305;48.398;11.762;2023-03-03T15:54:35;9.60;61.70
12481;DHT22;6305;48.398;11.762;2023-03-03T15:57:15;9.40;63.80
12481;DHT22;6305;48.398;11.762;2023-03-03T16:00:12;9.20;65.60
12481;DHT22;6305;48.398;11.762;2023-03-03T16:02:51;9.10;67.50
12481;DHT22;6305;48.398;11.762;2023-03-03T16:05:22;8.90;69.60
12481;DHT22;6305;48.398;11.762;2023-03-03T16:07:59;8.80;72.20
12481;DHT22;6305;48.398;11.762;2023-03-03T16:10:41;8.60;75.40
12481;DHT22;6305;48.398;11.762;2023-03-03T16:13:20;8.50;79.70
12481;DHT22;6305;48.398;11.762;2023-03-03T16:15:57;8.30;83.50
12481;DHT22;6305;48.398;11.762;2023-03-03T16:18:39;8.20;88.20
12481;DHT22;6305;48.398;11.762;2023-03-03T16:21:19;8.00;91.40
12481;DHT22;6305;48.398;11.762;2023-03-03T16:23:49;7.80;93.30